createdAt,value
2023-01-11T00:00:24.256Z,17.20
2023-01-11T00:03:04.763Z,18.17
2023-01-11T00:05:39.964Z,18.83
2023-01-11T00:08:07.703Z,21.75
2023-01-11T00:10:42.686Z,23.38
2023-01-11T00:13:10.473Z,23.38
2023-01-11T00:15:39.277Z,21.80
2023-01-11T00:18:16.946Z,22.23
2023-01-11T00:20:51.483Z,16.75
2023-01-11T00:23:18.450Z,18.40
2023-01-11T00:25:52.076Z,18.00
2023-01-11T00:28:20.299Z,16.23
2023-01-11T00:30:49.607Z,15.18
2023-01-11T00:33:23.026Z,17.30
2023-01-11T00:35:52.231Z,20.60
2023-01-11T00:38:30.011Z,20.85
2023-01-11T00:40:56.969Z,24.75
2023-01-11T00:43:24.026Z,26.52
2023-01-11T00:45:59.905Z,23.05
2023-01-11T00:48:28.438Z,23.67
2023-01-11T00:51:03.176Z,20.33
2023-01-11T00:53:37.051Z,23.75
2023-01-11T00:56:12.955Z,20.63
2023-01-11T00:58:40.375Z,21.65
2023-01-11T01:01:14.114Z,20.42
2023-01-11T01:03:41.842Z,23.58
2023-01-11T01:06:15.188Z,22.38
2023-01-11T01:08:43.401Z,21.35
2023-01-11T01:11:17.330Z,21.17
2023-01-11T01:13:44.250Z,16.52
2023-01-11T01:16:11.353Z,17.63
2023-01-11T01:18:45.996Z,18.38
2023-01-11T01:21:14.153Z,18.05
2023-01-11T01:23:48.578Z,18.10
2023-01-11T01:26:17.068Z,20.98
2023-01-11T01:28:51.088Z,19.27
2023-01-11T01:31:18.819Z,18.45
2023-01-11T01:33:53.907Z,17.83
2023-01-11T01:36:21.982Z,20.65
2023-01-11T01:38:56.644Z,15.55
2023-01-11T01:41:25.302Z,14.63
2023-01-11T01:44:03.134Z,17.05
2023-01-11T01:46:34.842Z,17.40
2023-01-11T01:49:18.599Z,18.13
2023-01-11T01:51:54.279Z,19.67
2023-01-11T01:54:32.049Z,17.98
2023-01-11T01:57:05.815Z,20.08
2023-01-11T01:59:39.517Z,18.42
2023-01-11T02:02:08.323Z,19.63
2023-01-11T02:04:50.731Z,23.13
2023-01-11T02:07:35.759Z,21.42
2023-01-11T02:10:23.067Z,17.73
2023-01-11T02:13:08.092Z,17.92
2023-01-11T02:15:35.354Z,14.18
2023-01-11T02:18:09.041Z,16.60
2023-01-11T02:21:02.068Z,13.40
2023-01-11T02:23:47.165Z,13.38
2023-01-11T02:26:46.281Z,12.40
2023-01-11T02:29:52.178Z,11.63
2023-01-11T02:32:41.669Z,14.13
2023-01-11T02:35:50.196Z,12.27
2023-01-11T02:38:43.155Z,13.27
2023-01-11T02:41:53.217Z,13.90
2023-01-11T02:44:35.556Z,12.65
2023-01-11T02:47:11.060Z,10.73
2023-01-11T02:49:48.144Z,15.15
2023-01-11T02:52:37.100Z,12.82
2023-01-11T02:55:04.563Z,11.45
2023-01-11T02:57:40.892Z,9.55
2023-01-11T03:00:15.052Z,11.38
2023-01-11T03:02:42.085Z,8.45
2023-01-11T03:05:21.043Z,10.20
2023-01-11T03:08:25.579Z,10.98
2023-01-11T03:11:14.098Z,8.18
2023-01-11T03:14:11.230Z,9.45
2023-01-11T03:17:25.135Z,9.07
2023-01-11T03:20:00.070Z,9.18
2023-01-11T03:22:59.661Z,9.55
2023-01-11T03:26:29.336Z,8.57
2023-01-11T03:29:18.699Z,11.45
2023-01-11T03:32:13.105Z,10.50
2023-01-11T03:35:24.092Z,13.82
2023-01-11T03:38:17.172Z,13.13
2023-01-11T03:40:55.131Z,12.65
2023-01-11T03:43:22.714Z,13.10
2023-01-11T03:46:23.185Z,11.45
2023-01-11T03:49:07.850Z,10.95
2023-01-11T03:51:48.139Z,8.75
2023-01-11T03:54:30.089Z,9.63
2023-01-11T03:57:07.647Z,8.70
2023-01-11T03:59:41.100Z,11.57
2023-01-11T04:02:26.142Z,10.65
2023-01-11T04:05:00.098Z,9.18
2023-01-11T04:07:27.048Z,8.70
2023-01-11T04:10:00.103Z,9.68
2023-01-11T04:12:34.213Z,12.27
2023-01-11T04:15:07.110Z,8.60
2023-01-11T04:17:34.045Z,11.05
2023-01-11T04:20:07.101Z,11.07
2023-01-11T04:22:34.063Z,9.50
2023-01-11T04:25:00.979Z,9.52
2023-01-11T04:27:34.153Z,10.60
2023-01-11T04:30:01.216Z,8.70
2023-01-11T04:32:35.177Z,8.63
2023-01-11T04:35:09.157Z,9.98
2023-01-11T04:37:36.203Z,8.60
2023-01-11T04:40:03.404Z,9.77
2023-01-11T04:42:37.191Z,9.23
2023-01-11T04:45:11.152Z,7.25
2023-01-11T04:47:38.243Z,8.70
2023-01-11T04:50:12.199Z,8.57
2023-01-11T04:52:46.292Z,8.43
2023-01-11T04:55:13.417Z,7.50
2023-01-11T04:57:47.208Z,6.78
2023-01-11T05:00:21.242Z,7.28
2023-01-11T05:02:55.225Z,8.73
2023-01-11T05:05:29.317Z,8.23
2023-01-11T05:07:56.335Z,10.30
2023-01-11T05:10:30.196Z,10.15
2023-01-11T05:12:57.699Z,9.23
2023-01-11T05:15:31.194Z,8.10
2023-01-11T05:18:05.255Z,5.50
2023-01-11T05:20:42.231Z,6.97
2023-01-11T05:23:09.658Z,9.07
2023-01-11T05:25:36.906Z,8.93
2023-01-11T05:28:10.330Z,7.57
2023-01-11T05:30:37.462Z,6.22
2023-01-11T05:33:11.353Z,7.00
2023-01-11T05:35:47.202Z,11.27
2023-01-11T05:38:16.255Z,6.32
2023-01-11T05:40:50.308Z,5.82
2023-01-11T05:43:17.336Z,7.57
2023-01-11T05:45:51.344Z,6.82
2023-01-11T05:48:25.289Z,5.80
2023-01-11T05:50:55.836Z,6.40
2023-01-11T05:53:35.090Z,9.30
2023-01-11T05:56:02.216Z,12.32
2023-01-11T05:58:36.305Z,7.03
2023-01-11T06:01:03.597Z,10.10
2023-01-11T06:03:33.864Z,8.82
2023-01-11T06:06:10.238Z,11.90
2023-01-11T06:08:37.455Z,7.20
2023-01-11T06:11:04.932Z,6.88
2023-01-11T06:13:39.334Z,10.90
2023-01-11T06:16:18.431Z,18.23
2023-01-11T06:18:59.113Z,15.23
2023-01-11T06:21:26.389Z,7.50
2023-01-11T06:23:53.577Z,7.28
2023-01-11T06:26:30.860Z,6.30
2023-01-11T06:28:57.915Z,7.95
2023-01-11T06:31:31.311Z,7.20
2023-01-11T06:33:58.502Z,6.60
2023-01-11T06:36:32.263Z,7.32
2023-01-11T06:38:59.293Z,8.27
2023-01-11T06:41:33.213Z,7.20
2023-01-11T06:44:07.783Z,7.85
2023-01-11T06:46:41.292Z,8.35
2023-01-11T06:49:08.486Z,7.30
2023-01-11T06:51:42.313Z,9.13
2023-01-11T06:54:09.351Z,7.07
2023-01-11T06:56:43.269Z,9.43
2023-01-11T06:59:17.307Z,6.88
2023-01-11T07:01:44.632Z,6.93
2023-01-11T07:04:18.222Z,6.88
2023-01-11T07:06:45.269Z,7.93
2023-01-11T07:09:19.233Z,7.53
2023-01-11T07:11:46.342Z,6.97
2023-01-11T07:14:13.545Z,8.77
2023-01-11T07:16:47.274Z,8.18
2023-01-11T07:19:21.313Z,8.95
2023-01-11T07:21:48.263Z,8.25
2023-01-11T07:24:22.306Z,7.97
2023-01-11T07:26:49.361Z,9.70
2023-01-11T07:29:23.270Z,9.55
2023-01-11T07:31:57.292Z,9.60
2023-01-11T07:34:31.271Z,9.88
2023-01-11T07:37:05.225Z,9.57
2023-01-11T07:39:42.899Z,7.55
2023-01-11T07:42:17.477Z,10.32
2023-01-11T07:44:44.472Z,8.25
2023-01-11T07:47:11.620Z,10.70
2023-01-11T07:49:48.242Z,8.57
2023-01-11T07:52:15.209Z,12.57
2023-01-11T07:54:48.260Z,12.13
2023-01-11T07:57:15.296Z,34.10
2023-01-11T07:59:42.325Z,46.50
2023-01-11T08:02:18.367Z,55.38
2023-01-11T08:04:52.380Z,29.33
2023-01-11T08:07:26.214Z,11.73
2023-01-11T08:09:53.110Z,8.75
2023-01-11T08:12:26.296Z,8.68
2023-01-11T08:14:53.191Z,8.52
2023-01-11T08:17:27.189Z,8.88
2023-01-11T08:19:54.075Z,7.25
2023-01-11T08:22:27.241Z,8.82
2023-01-11T08:25:00.900Z,8.70
2023-01-11T08:27:34.390Z,6.90
2023-01-11T08:30:01.243Z,7.65
2023-01-11T08:32:36.267Z,6.25
2023-01-11T08:35:09.280Z,8.48
2023-01-11T08:37:36.266Z,8.13
2023-01-11T08:40:03.255Z,6.03
2023-01-11T08:42:37.198Z,7.18
2023-01-11T08:45:04.305Z,6.93
2023-01-11T08:47:31.231Z,8.30
2023-01-11T08:50:04.249Z,8.50
2023-01-11T08:52:31.144Z,8.65
2023-01-11T08:54:58.102Z,15.52
2023-01-11T08:57:31.254Z,29.15
2023-01-11T08:59:58.194Z,34.05
2023-01-11T09:02:31.274Z,35.03
2023-01-11T09:04:58.146Z,32.20
2023-01-11T09:07:24.996Z,15.50
2023-01-11T09:09:58.187Z,32.15
2023-01-11T09:12:25.048Z,18.23
2023-01-11T09:14:51.952Z,21.85
2023-01-11T09:17:25.252Z,13.38
2023-01-11T09:19:52.124Z,14.77
2023-01-11T09:22:25.239Z,12.45
2023-01-11T09:24:52.127Z,15.50
2023-01-11T09:27:25.283Z,16.60
2023-01-11T09:29:58.232Z,24.80
2023-01-11T09:32:31.296Z,21.95
2023-01-11T09:34:58.196Z,27.52
2023-01-11T09:37:31.242Z,20.60
2023-01-11T09:39:58.279Z,31.15
2023-01-11T09:42:42.216Z,45.35
2023-01-11T09:45:23.035Z,40.75
2023-01-11T09:48:12.253Z,48.95
2023-01-11T09:50:51.299Z,42.05
2023-01-11T09:53:24.129Z,30.38
2023-01-11T09:55:51.006Z,22.27
2023-01-11T09:58:58.320Z,16.23
2023-01-11T10:01:33.266Z,13.32
2023-01-11T10:04:35.260Z,20.27
2023-01-11T10:18:32.629Z,18.50
2023-01-11T10:18:34.249Z,16.05
2023-01-11T10:21:11.533Z,27.80
2023-01-11T10:24:08.322Z,33.90
2023-01-11T10:26:44.285Z,24.55
2023-01-11T10:29:45.252Z,20.10
2023-01-11T10:32:44.292Z,30.73
2023-01-11T10:35:35.274Z,44.72
2023-01-11T10:38:05.138Z,31.67
2023-01-11T10:40:47.263Z,24.67
2023-01-11T10:43:19.859Z,27.90
2023-01-11T10:45:57.404Z,25.30
2023-01-11T10:48:48.327Z,21.48
2023-01-11T10:51:27.730Z,22.95
2023-01-11T10:54:23.279Z,17.08
2023-01-11T10:58:01.474Z,42.40
2023-01-11T11:00:40.413Z,38.15
2023-01-11T11:03:45.338Z,19.25
2023-01-11T11:06:58.887Z,13.88
2023-01-11T11:09:49.257Z,12.65
2023-01-11T11:12:35.165Z,18.48
2023-01-11T11:16:02.319Z,17.50
2023-01-11T11:18:29.299Z,18.23
2023-01-11T11:21:05.312Z,15.23
2023-01-11T11:23:32.223Z,15.48
2023-01-11T11:26:00.811Z,20.52
2023-01-11T11:28:37.307Z,19.15
2023-01-11T11:31:12.383Z,16.27
2023-01-11T11:33:47.636Z,19.23
2023-01-11T11:36:14.782Z,19.95
2023-01-11T11:39:08.301Z,22.15
2023-01-11T11:42:04.727Z,20.48
2023-01-11T11:44:38.333Z,22.27
2023-01-11T11:47:24.290Z,19.25
2023-01-11T11:49:51.186Z,18.73
2023-01-11T11:52:24.337Z,20.67
2023-01-11T11:54:56.953Z,23.27
2023-01-11T11:57:35.351Z,16.88
2023-01-11T12:00:27.473Z,15.00
2023-01-11T12:03:30.314Z,12.52
2023-01-11T12:06:02.480Z,12.77
2023-01-11T12:08:38.341Z,11.90
2023-01-11T12:11:06.964Z,7.18
2023-01-11T12:13:45.312Z,5.68
2023-01-11T12:16:22.462Z,4.95
2023-01-11T12:18:56.285Z,4.20
2023-01-11T12:21:25.578Z,4.93
2023-01-11T12:24:21.299Z,4.35
2023-01-11T12:27:20.575Z,6.10
2023-01-11T12:30:19.085Z,5.47
2023-01-11T12:33:08.388Z,7.15
2023-01-11T12:36:14.350Z,5.85
2023-01-11T12:39:21.191Z,4.95
2023-01-11T12:42:09.329Z,8.40
2023-01-11T12:44:53.349Z,12.85
2023-01-11T12:48:10.353Z,5.70
2023-01-11T12:50:58.334Z,12.52
2023-01-11T12:53:56.533Z,8.13
2023-01-11T12:57:04.380Z,9.38
2023-01-11T13:00:01.424Z,7.13
2023-01-11T13:02:56.423Z,5.38
2023-01-11T13:06:06.876Z,6.82
2023-01-11T13:08:46.378Z,3.33
2023-01-11T13:11:40.795Z,4.68
2023-01-11T13:14:50.374Z,9.43
2023-01-11T13:18:08.682Z,9.57
2023-01-11T13:21:14.390Z,6.15
2023-01-11T13:24:05.358Z,9.38
2023-01-11T13:27:11.473Z,7.68
2023-01-11T13:30:02.363Z,7.30
2023-01-11T13:32:32.665Z,4.03
2023-01-11T13:35:27.413Z,4.55
2023-01-11T13:38:13.321Z,2.80
2023-01-11T13:40:54.362Z,6.68
2023-01-11T13:43:43.857Z,6.72
2023-01-11T13:46:39.430Z,6.18
2023-01-11T13:49:26.006Z,4.90
2023-01-11T13:52:06.388Z,5.97
2023-01-11T13:54:39.769Z,6.97
2023-01-11T13:57:43.386Z,2.80
2023-01-11T14:00:35.383Z,5.68
2023-01-11T14:03:44.635Z,5.22
2023-01-11T14:06:26.405Z,4.75
2023-01-11T14:09:21.341Z,5.68
2023-01-11T14:12:21.652Z,4.80
2023-01-11T14:15:23.415Z,4.03
2023-01-11T14:18:07.428Z,5.47
2023-01-11T14:21:03.363Z,5.57
2023-01-11T14:23:47.919Z,6.68
2023-01-11T14:27:11.484Z,8.48
2023-01-11T14:30:20.539Z,8.05
2023-01-11T14:33:48.386Z,7.45
2023-01-11T14:36:36.281Z,6.32
2023-01-11T14:39:44.431Z,9.05
2023-01-11T14:42:34.249Z,6.80
2023-01-11T14:45:24.385Z,5.35
2023-01-11T14:48:26.189Z,8.07
2023-01-11T14:51:33.704Z,4.75
2023-01-11T14:54:23.175Z,8.05
2023-01-11T14:57:02.380Z,6.95
2023-01-11T14:59:33.087Z,5.03
2023-01-11T15:02:09.424Z,5.32
2023-01-11T15:04:59.307Z,4.57
2023-01-11T15:07:38.442Z,5.18
2023-01-11T15:10:28.236Z,10.63
2023-01-11T15:13:04.385Z,8.77
2023-01-11T15:15:32.197Z,8.02
2023-01-11T15:18:05.395Z,10.25
2023-01-11T15:20:32.260Z,6.22
2023-01-11T15:23:11.380Z,8.27
2023-01-11T15:25:38.283Z,6.43
2023-01-11T15:28:44.387Z,6.78
2023-01-11T15:32:03.184Z,11.68
2023-01-11T15:34:39.427Z,13.57
2023-01-11T15:37:33.480Z,18.42
2023-01-11T15:40:16.826Z,16.38
2023-01-11T15:43:16.388Z,9.93
2023-01-11T15:46:37.377Z,10.25
2023-01-11T15:49:38.443Z,8.00
2023-01-11T15:52:12.292Z,7.40
2023-01-11T15:55:32.414Z,9.00
2023-01-11T15:58:34.517Z,9.07
2023-01-11T16:01:26.603Z,12.25
2023-01-11T16:04:19.191Z,11.80
2023-01-11T16:07:03.427Z,12.32
2023-01-11T16:10:30.466Z,13.88
2023-01-11T16:14:05.667Z,10.85
2023-01-11T16:16:47.557Z,13.27
2023-01-11T16:19:31.446Z,9.57
2023-01-11T16:22:04.495Z,9.95
2023-01-11T16:24:36.000Z,10.90
2023-01-11T16:27:10.579Z,12.73
2023-01-11T16:29:37.682Z,12.35
2023-01-11T16:32:14.501Z,9.88
2023-01-11T16:34:43.763Z,8.13
2023-01-11T16:37:36.494Z,5.47
2023-01-11T16:40:27.448Z,8.93
2023-01-11T16:43:25.707Z,9.00
2023-01-11T16:45:59.464Z,12.18
2023-01-11T16:48:28.028Z,9.75
2023-01-11T16:51:11.485Z,10.20
2023-01-11T16:53:42.710Z,13.25
2023-01-11T16:56:23.476Z,21.33
2023-01-11T16:59:20.488Z,30.50
2023-01-11T17:02:01.702Z,33.22
2023-01-11T17:04:43.486Z,28.60
2023-01-11T17:07:14.303Z,42.55
2023-01-11T17:09:47.482Z,47.20
2023-01-11T17:12:25.003Z,42.78
2023-01-11T17:15:25.513Z,36.58
2023-01-11T17:17:52.430Z,30.55
2023-01-11T17:20:31.491Z,35.40
2023-01-11T17:22:58.447Z,33.42
2023-01-11T17:25:44.337Z,37.08
2023-01-11T17:28:24.494Z,34.33
2023-01-11T17:30:51.677Z,32.03
2023-01-11T17:33:35.483Z,28.23
2023-01-11T17:36:08.488Z,36.38
2023-01-11T17:38:35.624Z,33.35
2023-01-11T17:41:09.509Z,25.23
2023-01-11T17:43:36.436Z,17.65
2023-01-11T17:46:03.442Z,20.38
2023-01-11T17:48:37.486Z,14.00
2023-01-11T17:51:04.858Z,10.73
2023-01-11T17:53:40.524Z,7.65
2023-01-11T17:56:25.744Z,9.20
2023-01-11T17:59:03.524Z,8.73
2023-01-11T18:01:30.517Z,5.72
2023-01-11T18:03:58.124Z,7.15
2023-01-11T18:06:46.490Z,10.40
2023-01-11T18:09:25.762Z,15.85
2023-01-11T18:11:59.556Z,15.73
2023-01-11T18:14:28.510Z,17.05
2023-01-11T18:17:09.514Z,24.10
2023-01-11T18:19:41.901Z,24.80
2023-01-11T18:22:40.573Z,17.95
2023-01-11T18:25:25.293Z,14.73
2023-01-11T18:27:58.507Z,14.05
2023-01-11T18:30:31.500Z,12.10
2023-01-11T18:33:09.607Z,25.65
2023-01-11T18:35:45.812Z,35.38
2023-01-11T18:38:31.557Z,34.60
2023-01-11T18:41:00.980Z,37.22
2023-01-11T18:43:30.167Z,51.22
2023-01-11T18:46:03.561Z,106.22
2023-01-11T18:48:30.509Z,103.97
2023-01-11T18:51:03.525Z,86.57
2023-01-11T18:53:30.569Z,84.70
2023-01-11T18:55:57.645Z,69.95
2023-01-11T18:58:31.574Z,65.53
2023-01-11T19:00:58.666Z,59.88
2023-01-11T19:03:25.919Z,63.22
2023-01-11T19:05:59.630Z,38.47
2023-01-11T19:08:26.525Z,28.45
2023-01-11T19:10:53.396Z,19.38
2023-01-11T19:13:26.524Z,15.23
2023-01-11T19:15:53.447Z,14.88
2023-01-11T19:18:26.577Z,22.65
2023-01-11T19:20:53.690Z,25.50
2023-01-11T19:23:27.617Z,22.88
2023-01-11T19:25:58.692Z,24.98
2023-01-11T19:28:25.593Z,24.02
2023-01-11T19:30:58.595Z,24.05
2023-01-11T19:33:25.805Z,28.13
2023-01-11T19:35:59.530Z,20.80
2023-01-11T19:38:32.789Z,19.85
2023-01-11T19:41:11.542Z,20.85
2023-01-11T19:43:38.599Z,57.40
2023-01-11T19:46:13.604Z,61.45
2023-01-11T19:48:41.953Z,46.72
2023-01-11T19:51:17.609Z,50.88
2023-01-11T19:53:44.569Z,40.22
2023-01-11T19:56:17.608Z,38.58
2023-01-11T19:58:44.546Z,25.52
2023-01-11T20:01:12.130Z,31.50
2023-01-11T20:03:45.533Z,28.73
2023-01-11T20:06:12.512Z,27.52
2023-01-11T20:08:46.614Z,27.70
2023-01-11T20:11:15.837Z,31.00
2023-01-11T20:13:43.004Z,31.33
2023-01-11T20:16:19.567Z,31.48
2023-01-11T20:18:54.582Z,31.40
2023-01-11T20:21:30.593Z,27.48
2023-01-11T20:24:04.617Z,28.38
2023-01-11T20:26:31.852Z,30.45
2023-01-11T20:29:05.573Z,32.25
2023-01-11T20:31:33.083Z,32.20
2023-01-11T20:34:07.547Z,37.50
2023-01-11T20:36:34.489Z,46.75
2023-01-11T20:39:02.890Z,37.10
2023-01-11T20:41:36.638Z,33.05
2023-01-11T20:44:04.447Z,38.65
2023-01-11T20:46:31.628Z,43.42
2023-01-11T20:49:05.595Z,42.05
2023-01-11T20:51:32.753Z,36.88
2023-01-11T20:54:06.627Z,38.42
2023-01-11T20:56:33.680Z,32.58
2023-01-11T20:59:09.567Z,33.40
2023-01-11T21:01:37.030Z,32.88
2023-01-11T21:04:13.660Z,30.63
2023-01-11T21:06:42.896Z,49.95
2023-01-11T21:09:19.713Z,34.55
2023-01-11T21:11:54.273Z,34.90
2023-01-11T21:14:25.626Z,35.00
2023-01-11T21:17:03.647Z,33.90
2023-01-11T21:19:35.256Z,29.33
2023-01-11T21:22:09.162Z,28.15
2023-01-11T21:24:48.021Z,31.25
2023-01-11T21:27:32.637Z,28.65
2023-01-11T21:29:59.875Z,27.27
2023-01-11T21:32:33.578Z,21.92
2023-01-11T21:35:07.782Z,23.13
2023-01-11T21:37:42.592Z,22.75
2023-01-11T21:40:17.987Z,23.70
2023-01-11T21:42:52.039Z,24.95
2023-01-11T21:45:19.209Z,25.00
2023-01-11T21:47:54.255Z,25.85
2023-01-11T21:50:22.982Z,30.63
2023-01-11T21:52:56.872Z,37.25
2023-01-11T21:55:28.063Z,35.22
2023-01-11T21:58:04.715Z,29.95
2023-01-11T22:00:32.206Z,42.83
2023-01-11T22:02:59.159Z,51.33
2023-01-11T22:05:32.986Z,78.05
2023-01-11T22:08:00.056Z,85.70
2023-01-11T22:10:33.720Z,69.00
2023-01-11T22:13:01.017Z,58.95
2023-01-11T22:15:34.773Z,57.33
2023-01-11T22:18:08.717Z,41.65
2023-01-11T22:20:35.623Z,39.08
2023-01-11T22:23:02.626Z,34.20
2023-01-11T22:25:36.619Z,35.17
2023-01-11T22:28:03.587Z,34.00
2023-01-11T22:30:30.580Z,38.15
2023-01-11T22:33:05.845Z,38.83
2023-01-11T22:35:32.876Z,60.67
2023-01-11T22:38:06.639Z,75.97
2023-01-11T22:40:33.510Z,82.35
2023-01-11T22:43:07.823Z,60.45
2023-01-11T22:45:34.829Z,47.72
2023-01-11T22:48:08.606Z,57.67
2023-01-11T22:50:37.817Z,55.30
2023-01-11T22:53:12.052Z,33.10
2023-01-11T22:55:38.941Z,25.00
2023-01-11T22:58:12.634Z,27.08
2023-01-11T23:00:41.950Z,29.90
2023-01-11T23:03:15.826Z,51.78
2023-01-11T23:05:46.588Z,73.00
2023-01-11T23:08:14.034Z,61.22
2023-01-11T23:10:48.672Z,62.85
2023-01-11T23:13:16.771Z,70.40
2023-01-11T23:15:50.721Z,63.22
2023-01-11T23:18:17.631Z,51.10
2023-01-11T23:20:44.566Z,50.63
2023-01-11T23:23:19.647Z,31.83
2023-01-11T23:25:46.694Z,54.85
2023-01-11T23:28:20.627Z,62.92
2023-01-11T23:30:53.621Z,51.10
2023-01-11T23:33:28.036Z,44.38
2023-01-11T23:35:59.635Z,43.67
2023-01-11T23:38:27.993Z,39.80
2023-01-11T23:41:03.241Z,33.08
2023-01-11T23:43:36.663Z,33.92
2023-01-11T23:46:06.603Z,31.42
2023-01-11T23:48:34.013Z,34.28
2023-01-11T23:51:11.675Z,31.55
2023-01-11T23:53:39.676Z,31.98
2023-01-11T23:56:14.912Z,33.85
2023-01-11T23:58:41.974Z,30.27
